createdAt,value
2018-12-22T00:00:54.485Z,2.97
2018-12-22T00:03:24.572Z,1.30
2018-12-22T00:05:55.394Z,2.67
2018-12-22T00:08:25.558Z,3.73
2018-12-22T00:10:55.633Z,3.10
2018-12-22T00:13:25.685Z,3.53
2018-12-22T00:15:55.940Z,0.97
2018-12-22T00:18:25.955Z,2.73
2018-12-22T00:20:56.546Z,1.43
2018-12-22T00:23:28.881Z,2.37
2018-12-22T00:25:59.080Z,1.47
2018-12-22T00:28:29.683Z,1.07
2018-12-22T00:31:01.022Z,2.10
2018-12-22T00:33:31.102Z,1.13
2018-12-22T00:36:01.286Z,0.93
2018-12-22T00:38:31.794Z,1.30
2018-12-22T00:41:02.785Z,3.80
2018-12-22T00:43:33.399Z,2.73
2018-12-22T00:46:03.734Z,1.07
2018-12-22T00:48:34.465Z,1.53
2018-12-22T00:51:04.812Z,0.70
2018-12-22T00:53:35.419Z,2.60
2018-12-22T00:56:06.887Z,2.47
2018-12-22T00:58:37.210Z,3.83
2018-12-22T01:01:07.442Z,0.73
2018-12-22T01:03:38.121Z,0.60
2018-12-22T01:06:08.281Z,2.73
2018-12-22T01:08:38.304Z,0.70
2018-12-22T01:11:09.905Z,3.57
2018-12-22T01:13:41.322Z,0.83
2018-12-22T01:16:12.290Z,1.03
2018-12-22T01:18:42.337Z,1.80
2018-12-22T01:21:12.491Z,0.77
2018-12-22T01:23:43.209Z,1.53
2018-12-22T01:26:14.216Z,1.00
2018-12-22T01:28:44.734Z,2.60
2018-12-22T01:31:14.912Z,1.53
2018-12-22T01:33:45.085Z,2.60
2018-12-22T01:36:16.375Z,1.23
2018-12-22T01:38:46.469Z,8.13
2018-12-22T01:41:17.827Z,5.87
2018-12-22T01:43:48.468Z,1.10
2018-12-22T01:46:19.046Z,2.37
2018-12-22T01:48:49.031Z,1.53
2018-12-22T01:51:19.655Z,2.07
2018-12-22T01:53:49.701Z,1.27
2018-12-22T01:56:20.470Z,1.93
2018-12-22T01:58:50.717Z,4.43
2018-12-22T02:01:21.424Z,3.17
2018-12-22T02:03:51.375Z,2.90
2018-12-22T02:06:22.603Z,2.70
2018-12-22T02:08:53.599Z,1.73
2018-12-22T02:11:24.657Z,2.00
2018-12-22T02:13:55.481Z,4.10
2018-12-22T02:16:25.634Z,2.40
2018-12-22T02:18:55.697Z,1.97
2018-12-22T02:21:25.848Z,1.70
2018-12-22T02:23:58.003Z,2.47
2018-12-22T02:26:28.045Z,3.90
2018-12-22T02:28:58.514Z,2.63
2018-12-22T02:31:28.602Z,2.30
2018-12-22T02:33:58.692Z,2.30
2018-12-22T02:36:29.447Z,2.30
2018-12-22T02:39:00.383Z,1.47
2018-12-22T02:41:31.290Z,1.23
2018-12-22T02:44:01.573Z,2.20
2018-12-22T02:46:32.232Z,3.00
2018-12-22T02:49:02.845Z,2.23
2018-12-22T02:51:32.949Z,2.20
2018-12-22T02:54:05.552Z,2.20
2018-12-22T02:56:35.725Z,1.87
2018-12-22T02:59:06.559Z,2.57
2018-12-22T03:01:37.710Z,1.43
2018-12-22T03:04:08.013Z,2.93
2018-12-22T03:06:38.119Z,1.70
2018-12-22T03:09:09.141Z,4.00
2018-12-22T03:11:41.734Z,1.63
2018-12-22T03:14:12.639Z,4.30
2018-12-22T03:16:42.823Z,3.67
2018-12-22T03:19:13.288Z,7.40
2018-12-22T03:21:43.559Z,4.03
2018-12-22T03:24:14.150Z,3.30
2018-12-22T03:26:46.169Z,4.80
2018-12-22T03:29:16.304Z,5.13
2018-12-22T03:31:47.102Z,4.20
2018-12-22T03:34:18.281Z,4.63
2018-12-22T03:36:48.445Z,5.93
2018-12-22T03:39:19.028Z,3.60
2018-12-22T03:41:49.614Z,4.93
2018-12-22T03:44:19.872Z,4.53
2018-12-22T03:46:50.397Z,3.37
2018-12-22T03:49:21.675Z,5.13
2018-12-22T03:51:52.496Z,5.30
2018-12-22T03:54:23.883Z,5.57
2018-12-22T03:56:54.100Z,4.20
2018-12-22T03:59:25.465Z,4.70
2018-12-22T04:01:56.477Z,6.33
2018-12-22T04:04:26.565Z,4.37
2018-12-22T04:06:56.696Z,2.90
2018-12-22T04:09:26.913Z,4.00
2018-12-22T04:11:57.055Z,4.00
2018-12-22T04:14:27.177Z,4.23
2018-12-22T04:16:57.957Z,3.70
2018-12-22T04:19:28.129Z,6.23
2018-12-22T04:21:58.219Z,4.73
2018-12-22T04:24:28.933Z,10.37
2018-12-22T04:26:59.033Z,5.77
2018-12-22T04:29:33.750Z,5.50
2018-12-22T04:32:02.216Z,7.00
2018-12-22T04:34:32.293Z,9.90
2018-12-22T04:37:02.748Z,9.70
2018-12-22T04:39:32.846Z,3.40
2018-12-22T04:42:03.433Z,4.10
2018-12-22T04:44:33.410Z,4.20
2018-12-22T04:47:04.004Z,5.57
2018-12-22T04:49:34.082Z,3.07
2018-12-22T04:52:04.887Z,6.83
2018-12-22T04:54:34.825Z,6.80
2018-12-22T04:57:05.083Z,6.73
2018-12-22T04:59:42.772Z,4.43
2018-12-22T05:02:07.483Z,6.90
2018-12-22T05:04:38.050Z,5.50
2018-12-22T05:07:08.810Z,5.80
2018-12-22T05:09:39.037Z,5.27
2018-12-22T05:12:09.368Z,7.20
2018-12-22T05:14:41.213Z,6.20
2018-12-22T05:17:11.957Z,5.23
2018-12-22T05:19:42.809Z,6.73
2018-12-22T05:22:13.908Z,6.40
2018-12-22T05:24:44.565Z,9.00
2018-12-22T05:27:15.370Z,4.43
2018-12-22T05:29:51.775Z,5.80
2018-12-22T05:32:18.229Z,6.93
2018-12-22T05:34:50.118Z,5.93
2018-12-22T05:37:20.260Z,6.97
2018-12-22T05:39:52.476Z,7.93
2018-12-22T05:42:22.738Z,6.20
2018-12-22T05:44:53.152Z,6.93
2018-12-22T05:47:23.721Z,8.33
2018-12-22T05:49:54.626Z,8.47
2018-12-22T05:52:24.813Z,8.57
2018-12-22T05:54:55.580Z,6.40
2018-12-22T05:57:26.506Z,12.87
2018-12-22T06:00:00.729Z,5.93
2018-12-22T06:02:30.463Z,8.90
2018-12-22T06:05:00.682Z,7.60
2018-12-22T06:07:30.881Z,7.33
2018-12-22T06:10:02.171Z,5.80
2018-12-22T06:12:32.247Z,8.87
2018-12-22T06:15:02.335Z,10.30
2018-12-22T06:17:32.451Z,15.33
2018-12-22T06:20:03.132Z,7.90
2018-12-22T06:22:35.247Z,11.70
2018-12-22T06:25:07.213Z,7.37
2018-12-22T06:27:37.401Z,7.03
2018-12-22T06:30:09.395Z,9.70
2018-12-22T06:32:39.935Z,8.63
2018-12-22T06:35:10.978Z,8.40
2018-12-22T06:37:42.176Z,8.80
2018-12-22T06:40:12.914Z,9.13
2018-12-22T06:42:43.661Z,10.40
2018-12-22T06:45:14.132Z,7.40
2018-12-22T06:47:45.538Z,13.10
2018-12-22T06:50:16.128Z,13.37
2018-12-22T06:52:47.328Z,11.70
2018-12-22T06:55:17.448Z,12.40
2018-12-22T06:57:48.710Z,16.10
2018-12-22T07:00:19.307Z,15.17
2018-12-22T07:02:50.084Z,16.27
2018-12-22T07:05:20.224Z,18.17
2018-12-22T07:07:50.834Z,20.10
2018-12-22T07:10:21.801Z,21.47
2018-12-22T07:12:52.740Z,18.77
2018-12-22T07:15:22.911Z,21.20
2018-12-22T07:17:52.954Z,23.10
2018-12-22T07:20:23.059Z,23.77
2018-12-22T07:22:53.252Z,24.17
2018-12-22T07:25:24.070Z,25.30
2018-12-22T07:27:54.225Z,26.23
2018-12-22T07:30:26.339Z,27.40
2018-12-22T07:32:57.221Z,27.20
2018-12-22T07:35:27.740Z,26.67
2018-12-22T07:37:58.425Z,29.40
2018-12-22T07:40:28.479Z,27.90
2018-12-22T07:42:59.188Z,26.40
2018-12-22T07:45:29.366Z,25.53
2018-12-22T07:48:00.259Z,28.80
2018-12-22T07:50:30.446Z,26.60
2018-12-22T07:53:00.448Z,29.23
2018-12-22T07:55:31.294Z,26.10
2018-12-22T07:58:01.645Z,23.40
2018-12-22T08:00:35.071Z,23.37
2018-12-22T08:03:06.183Z,20.73
2018-12-22T08:05:38.943Z,26.10
2018-12-22T08:08:10.603Z,18.87
2018-12-22T08:10:41.176Z,25.20
2018-12-22T08:13:12.467Z,24.40
2018-12-22T08:15:43.209Z,26.70
2018-12-22T08:18:14.028Z,30.53
2018-12-22T08:20:45.083Z,30.40
2018-12-22T08:23:15.883Z,20.97
2018-12-22T08:25:46.061Z,24.57
2018-12-22T08:28:16.288Z,19.30
2018-12-22T08:30:48.619Z,24.50
2018-12-22T08:33:18.618Z,21.33
2018-12-22T08:35:48.643Z,22.17
2018-12-22T08:38:19.116Z,20.00
2018-12-22T08:40:49.365Z,17.97
2018-12-22T08:43:20.835Z,16.77
2018-12-22T08:45:51.515Z,20.10
2018-12-22T08:48:21.967Z,16.53
2018-12-22T08:50:52.227Z,17.03
2018-12-22T08:53:23.002Z,13.23
2018-12-22T08:55:53.088Z,10.77
2018-12-22T08:58:23.922Z,7.53
2018-12-22T09:00:55.501Z,8.67
2018-12-22T09:03:27.040Z,9.33
2018-12-22T09:05:57.317Z,8.37
2018-12-22T09:08:29.051Z,8.53
2018-12-22T09:10:59.081Z,5.67
2018-12-22T09:13:29.980Z,9.73
2018-12-22T09:16:00.956Z,5.23
2018-12-22T09:18:31.721Z,4.97
2018-12-22T09:21:01.949Z,5.83
2018-12-22T09:23:32.067Z,6.37
2018-12-22T09:26:02.181Z,5.47
2018-12-22T09:28:33.870Z,2.90
2018-12-22T09:31:03.988Z,4.27
2018-12-22T09:33:34.184Z,5.03
2018-12-22T09:36:04.274Z,6.70
2018-12-22T09:38:34.484Z,5.70
2018-12-22T09:41:04.553Z,8.73
2018-12-22T09:43:34.830Z,9.47
2018-12-22T09:46:05.073Z,6.70
2018-12-22T09:48:35.202Z,7.97
2018-12-22T09:51:05.284Z,6.50
2018-12-22T09:53:35.309Z,8.00
2018-12-22T09:56:06.214Z,8.83
2018-12-22T09:58:36.744Z,9.27
2018-12-22T10:01:09.423Z,12.50
2018-12-22T10:03:40.408Z,12.70
2018-12-22T10:06:11.512Z,8.60
2018-12-22T10:08:42.183Z,10.03
2018-12-22T10:11:12.191Z,12.50
2018-12-22T10:13:42.909Z,16.50
2018-12-22T10:16:13.522Z,14.90
2018-12-22T10:18:44.763Z,18.47
2018-12-22T10:21:15.310Z,16.30
2018-12-22T10:23:45.468Z,16.50
2018-12-22T10:26:15.535Z,12.47
2018-12-22T10:28:46.224Z,13.63
2018-12-22T10:31:18.170Z,15.40
2018-12-22T10:33:48.484Z,16.67
2018-12-22T10:36:19.268Z,19.67
2018-12-22T10:38:49.468Z,22.37
2018-12-22T10:41:20.590Z,19.53
2018-12-22T10:43:50.759Z,21.27
2018-12-22T10:46:20.786Z,16.90
2018-12-22T10:48:51.496Z,17.43
2018-12-22T10:51:24.442Z,16.37
2018-12-22T10:53:54.814Z,22.23
2018-12-22T10:56:26.703Z,16.80
2018-12-22T10:58:57.198Z,18.47
2018-12-22T11:01:28.226Z,17.37
2018-12-22T11:04:02.319Z,20.57
2018-12-22T11:06:32.614Z,20.83
2018-12-22T11:09:05.567Z,19.50
2018-12-22T11:11:35.580Z,20.33
2018-12-22T11:14:06.321Z,19.30
2018-12-22T11:16:36.415Z,17.00
2018-12-22T11:19:08.740Z,19.07
2018-12-22T11:21:39.970Z,14.53
2018-12-22T11:24:10.553Z,15.63
2018-12-22T11:26:40.547Z,14.17
2018-12-22T11:29:10.822Z,19.57
2018-12-22T11:31:40.846Z,15.03
2018-12-22T11:34:13.148Z,14.30
2018-12-22T11:36:43.797Z,15.87
2018-12-22T11:39:13.799Z,13.93
2018-12-22T11:41:43.810Z,12.07
2018-12-22T11:44:14.043Z,12.70
2018-12-22T11:46:45.093Z,17.20
2018-12-22T11:49:47.763Z,11.10
2018-12-22T11:52:18.642Z,15.50
2018-12-22T11:54:48.814Z,10.90
2018-12-22T11:57:18.987Z,11.93
2018-12-22T11:59:50.001Z,14.50
2018-12-22T12:02:20.097Z,12.77
2018-12-22T12:04:50.609Z,15.60
2018-12-22T12:07:20.926Z,12.73
2018-12-22T12:09:51.733Z,13.50
2018-12-22T12:12:22.808Z,10.07
2018-12-22T12:14:53.033Z,8.90
2018-12-22T12:18:07.733Z,5.60
2018-12-22T12:20:38.695Z,9.80
2018-12-22T12:23:09.533Z,6.80
2018-12-22T12:25:40.883Z,8.63
2018-12-22T12:28:11.035Z,9.17
2018-12-22T12:30:41.315Z,7.13
2018-12-22T12:33:11.470Z,7.20
2018-12-22T12:35:41.777Z,7.80
2018-12-22T12:38:11.891Z,6.13
2018-12-22T12:40:42.646Z,5.30
2018-12-22T12:43:13.084Z,2.50
2018-12-22T12:45:44.234Z,2.87
2018-12-22T12:48:14.766Z,2.43
2018-12-22T12:50:47.812Z,3.13
2018-12-22T12:53:17.730Z,3.03
2018-12-22T12:55:48.513Z,2.17
2018-12-22T12:58:18.743Z,2.90
2018-12-22T13:00:49.766Z,1.70
2018-12-22T13:03:20.100Z,3.73
2018-12-22T13:05:50.414Z,1.53
2018-12-22T13:11:39.500Z,5.93
2018-12-22T13:14:16.876Z,1.30
2018-12-22T13:16:47.239Z,1.10
2018-12-22T13:19:17.521Z,1.27
2018-12-22T13:21:54.634Z,2.30
2018-12-22T13:24:24.768Z,2.10
2018-12-22T13:26:55.392Z,1.57
2018-12-22T13:29:25.512Z,2.77
2018-12-22T13:31:55.697Z,5.60
2018-12-22T13:34:26.498Z,5.23
2018-12-22T13:36:56.754Z,4.13
2018-12-22T13:39:29.764Z,3.67
2018-12-22T13:42:00.773Z,6.33
2018-12-22T13:44:31.579Z,6.67
2018-12-22T13:47:01.965Z,6.70
2018-12-22T13:49:32.890Z,11.60
2018-12-22T13:52:03.147Z,6.50
2018-12-22T13:54:33.995Z,8.73
2018-12-22T13:57:04.793Z,4.73
2018-12-22T13:59:34.986Z,4.60
2018-12-22T14:02:07.710Z,6.17
2018-12-22T14:04:38.773Z,3.73
2018-12-22T14:07:12.075Z,3.47
2018-12-22T14:09:42.942Z,7.37
2018-12-22T14:12:13.785Z,24.70
2018-12-22T14:14:44.800Z,16.00
2018-12-22T14:17:24.161Z,13.00
2018-12-22T14:20:01.542Z,12.50
2018-12-22T14:22:34.400Z,6.30
2018-12-22T14:25:08.754Z,16.07
2018-12-22T14:27:39.344Z,19.47
2018-12-22T14:30:12.493Z,12.63
2018-12-22T14:32:42.715Z,3.20
2018-12-22T14:36:20.994Z,2.50
2018-12-22T14:38:51.309Z,4.20
2018-12-22T14:41:21.552Z,5.00
2018-12-22T14:43:53.003Z,14.03
2018-12-22T14:46:23.053Z,3.50
2018-12-22T14:48:53.736Z,4.43
2018-12-22T14:51:24.621Z,3.33
2018-12-22T14:53:55.383Z,2.60
2018-12-22T14:56:34.058Z,6.67
2018-12-22T14:59:04.972Z,4.77
2018-12-22T15:01:36.286Z,3.20
2018-12-22T15:04:07.661Z,6.30
2018-12-22T15:06:37.945Z,8.63
2018-12-22T15:09:13.313Z,4.73
2018-12-22T15:11:41.110Z,6.60
2018-12-22T15:14:11.235Z,3.30
2018-12-22T15:16:41.367Z,7.07
2018-12-22T15:19:11.531Z,6.03
2018-12-22T15:21:41.674Z,5.63
2018-12-22T15:24:12.703Z,3.63
2018-12-22T15:26:43.867Z,6.50
2018-12-22T15:29:14.867Z,6.03
2018-12-22T15:31:46.444Z,5.47
2018-12-22T15:34:16.674Z,11.40
2018-12-22T15:36:46.672Z,6.93
2018-12-22T15:39:17.267Z,11.60
2018-12-22T15:41:47.390Z,6.30
2018-12-22T15:44:18.049Z,12.33
2018-12-22T15:46:48.115Z,8.50
2018-12-22T15:49:21.347Z,5.60
2018-12-22T15:51:51.544Z,12.10
2018-12-22T15:54:21.819Z,12.60
2018-12-22T15:56:52.549Z,15.47
2018-12-22T15:59:22.785Z,10.20
2018-12-22T16:01:52.876Z,19.03
2018-12-22T16:04:23.068Z,12.07
2018-12-22T16:06:53.199Z,11.77
2018-12-22T16:09:23.903Z,14.73
2018-12-22T16:11:54.123Z,12.87
2018-12-22T16:14:24.227Z,12.90
2018-12-22T16:16:55.487Z,9.73
2018-12-22T16:19:26.230Z,17.57
2018-12-22T16:21:56.808Z,12.00
2018-12-22T16:24:27.019Z,7.57
2018-12-22T16:26:57.339Z,8.43
2018-12-22T16:29:34.014Z,7.00
2018-12-22T16:32:04.406Z,12.60
2018-12-22T16:34:34.780Z,14.90
2018-12-22T16:37:05.510Z,12.23
2018-12-22T16:39:36.226Z,8.53
2018-12-22T16:42:06.820Z,9.07
2018-12-22T16:44:37.059Z,9.30
2018-12-22T16:47:07.289Z,11.03
2018-12-22T16:49:37.834Z,13.30
2018-12-22T16:52:08.867Z,6.40
2018-12-22T16:54:39.043Z,8.70
2018-12-22T16:57:09.250Z,13.27
2018-12-22T16:59:39.997Z,8.80
2018-12-22T17:02:41.801Z,7.90
2018-12-22T17:05:12.617Z,8.37
2018-12-22T17:07:42.821Z,6.10
2018-12-22T17:10:13.085Z,4.47
2018-12-22T17:12:43.534Z,6.73
2018-12-22T17:15:21.938Z,9.00
2018-12-22T17:17:47.361Z,9.63
2018-12-22T17:20:17.479Z,5.87
2018-12-22T17:23:08.108Z,9.90
2018-12-22T17:25:49.496Z,5.17
2018-12-22T17:28:28.073Z,16.03
2018-12-22T17:30:51.799Z,9.03
2018-12-22T17:33:21.897Z,8.80
2018-12-22T17:35:52.029Z,7.93
2018-12-22T17:38:22.263Z,17.80
2018-12-22T17:40:52.640Z,8.27
2018-12-22T17:43:23.302Z,9.20
2018-12-22T17:45:54.450Z,11.13
2018-12-22T17:48:24.989Z,9.30
2018-12-22T17:50:55.148Z,10.90
2018-12-22T17:53:25.185Z,6.70
2018-12-22T17:55:55.336Z,11.43
2018-12-22T17:58:25.303Z,7.83
2018-12-22T18:00:55.542Z,10.23
2018-12-22T18:03:31.983Z,8.30
2018-12-22T18:06:02.139Z,5.90
2018-12-22T18:08:32.309Z,6.03
2018-12-22T18:11:04.006Z,9.03
2018-12-22T18:13:34.756Z,7.60
2018-12-22T18:16:04.969Z,6.63
2018-12-22T18:18:35.171Z,6.20
2018-12-22T18:21:05.376Z,9.73
2018-12-22T18:23:36.066Z,7.33
2018-12-22T18:26:06.692Z,10.17
2018-12-22T18:28:37.294Z,6.03
2018-12-22T18:31:08.879Z,11.00
2018-12-22T18:33:38.896Z,5.43
2018-12-22T18:36:09.540Z,5.50
2018-12-22T18:38:40.358Z,8.30
2018-12-22T18:41:10.922Z,10.13
2018-12-22T18:43:42.453Z,7.17
2018-12-22T18:46:13.105Z,14.43
2018-12-22T18:48:43.102Z,7.13
2018-12-22T18:51:13.711Z,10.57
2018-12-22T18:53:43.915Z,6.90
2018-12-22T18:56:14.763Z,8.47
2018-12-22T18:58:44.919Z,16.13
2018-12-22T19:01:15.170Z,8.90
2018-12-22T19:03:45.395Z,9.73
2018-12-22T19:06:15.858Z,9.53
2018-12-22T19:08:46.658Z,8.90
2018-12-22T19:11:19.893Z,10.13
2018-12-22T19:13:50.020Z,8.73
2018-12-22T19:16:20.935Z,10.77
2018-12-22T19:18:51.061Z,20.97
2018-12-22T19:21:21.695Z,11.97
2018-12-22T19:23:51.642Z,10.97
2018-12-22T19:26:22.445Z,9.33
2018-12-22T19:28:52.474Z,13.53
2018-12-22T19:31:22.909Z,8.97
2018-12-22T19:33:54.228Z,9.80
2018-12-22T19:36:25.838Z,9.03
2018-12-22T19:38:58.074Z,10.20
2018-12-22T19:41:28.875Z,9.00
2018-12-22T19:43:59.645Z,6.93
2018-12-22T19:46:29.953Z,12.83
2018-12-22T19:49:00.658Z,7.37
2018-12-22T19:51:31.465Z,9.00
2018-12-22T19:54:02.106Z,10.90
2018-12-22T19:56:33.054Z,14.53
2018-12-22T19:59:03.788Z,7.43
2018-12-22T20:01:34.480Z,7.20
2018-12-22T20:04:04.683Z,9.30
2018-12-22T20:06:34.839Z,18.07
2018-12-22T20:09:06.085Z,9.93
2018-12-22T20:11:36.279Z,8.53
2018-12-22T20:14:07.383Z,15.57
2018-12-22T20:16:38.225Z,6.83
2018-12-22T20:19:08.268Z,8.67
2018-12-22T20:21:38.635Z,13.23
2018-12-22T20:24:08.806Z,8.93
2018-12-22T20:26:40.159Z,8.93
2018-12-22T20:29:10.798Z,11.90
2018-12-22T20:31:42.152Z,11.13
2018-12-22T20:34:13.058Z,7.87
2018-12-22T20:36:43.867Z,8.50
2018-12-22T20:39:14.564Z,10.40
2018-12-22T20:41:44.736Z,7.70
2018-12-22T20:44:14.862Z,8.13
2018-12-22T20:46:45.075Z,7.37
2018-12-22T20:49:15.333Z,8.40
2018-12-22T20:51:46.087Z,7.60
2018-12-22T20:54:16.779Z,7.70
2018-12-22T20:56:47.490Z,9.00
2018-12-22T20:59:18.480Z,8.67
2018-12-22T21:01:48.649Z,8.30
2018-12-22T21:04:19.997Z,7.60
2018-12-22T21:06:50.438Z,9.23
2018-12-22T21:09:22.011Z,10.43
2018-12-22T21:11:52.495Z,7.73
2018-12-22T21:14:23.262Z,11.20
2018-12-22T21:16:54.659Z,7.40
2018-12-22T21:19:25.365Z,6.97
2018-12-22T21:21:55.579Z,8.87
2018-12-22T21:24:26.074Z,8.60
2018-12-22T21:26:56.040Z,8.90
2018-12-22T21:29:26.185Z,7.83
2018-12-22T21:31:56.343Z,8.17
2018-12-22T21:34:28.459Z,7.57
2018-12-22T21:36:58.697Z,8.53
2018-12-22T21:39:28.867Z,10.23
2018-12-22T21:41:58.914Z,11.20
2018-12-22T21:44:29.058Z,9.30
2018-12-22T21:46:59.377Z,7.20
2018-12-22T21:49:30.017Z,12.97
2018-12-22T21:52:00.204Z,10.37
2018-12-22T21:54:31.532Z,13.57
2018-12-22T21:57:02.726Z,9.03
2018-12-22T21:59:32.913Z,10.57
2018-12-22T22:02:02.965Z,9.23
2018-12-22T22:04:36.975Z,9.67
2018-12-22T22:07:05.263Z,9.90
2018-12-22T22:09:36.000Z,12.97
2018-12-22T22:12:07.368Z,11.03
2018-12-22T22:14:37.995Z,13.40
2018-12-22T22:17:08.122Z,8.67
2018-12-22T22:19:38.243Z,10.03
2018-12-22T22:22:08.322Z,8.87
2018-12-22T22:24:38.502Z,8.50
2018-12-22T22:27:08.781Z,10.33
2018-12-22T22:29:39.601Z,12.57
2018-12-22T22:32:10.501Z,8.40
2018-12-22T22:34:45.593Z,11.27
2018-12-22T22:37:12.946Z,10.90
2018-12-22T22:39:43.493Z,11.77
2018-12-22T22:42:13.746Z,11.73
2018-12-22T22:44:44.604Z,12.90
2018-12-22T22:47:14.822Z,10.60
2018-12-22T22:49:44.879Z,10.17
2018-12-22T22:52:15.045Z,10.27
2018-12-22T22:54:45.852Z,9.53
2018-12-22T22:57:16.052Z,14.60
2018-12-22T22:59:46.704Z,10.00
2018-12-22T23:02:16.888Z,13.07
2018-12-22T23:04:54.167Z,14.10
2018-12-22T23:07:19.073Z,10.00
2018-12-22T23:09:49.414Z,10.00
2018-12-22T23:12:19.434Z,14.30
2018-12-22T23:14:50.119Z,10.30
2018-12-22T23:17:20.648Z,11.67
2018-12-22T23:19:50.775Z,10.40
2018-12-22T23:22:20.950Z,11.03
2018-12-22T23:24:51.771Z,9.90
2018-12-22T23:27:21.917Z,11.67
2018-12-22T23:29:52.836Z,12.00
2018-12-22T23:32:23.050Z,10.40
2018-12-22T23:34:53.156Z,14.40
2018-12-22T23:37:23.345Z,11.40
2018-12-22T23:39:55.162Z,10.40
2018-12-22T23:42:25.365Z,13.47
2018-12-22T23:44:55.754Z,10.23
2018-12-22T23:47:26.994Z,12.37
2018-12-22T23:49:58.097Z,11.80
2018-12-22T23:52:30.411Z,18.43
2018-12-22T23:55:00.963Z,11.03
2018-12-22T23:57:31.923Z,9.20
